LOD weather

Longana Airport
Longana, Penama, Vanuatu

Public forecast

Using degrees Celsius for public forecast. Weather courtesy of forecast.io.

Current aviation weather report (METAR) for Longana Airport

Retrieved 2019/12/11 02:00 UTC (39 minutes ago):

NVSG 110200Z AUTO 16004KT //// // NCD 29/23 Q1009

Aviation forecast (TAF) for Longana Airport

Retrieved 2019-12-11 00:22 UTC (2 hours ago):

TAF NVSG 102220Z 1100/1124 16005KT 9999 SCT025 PROB30 INTER 1100/1106 9000 -SHRA BKN018